Morgantown, Mississippi
Current Conditions -  °F | °C
As of 12:35 PM on Saturday 25 Oct 2014 (Local Time) from KSTF Reporting Station
Clear Clear  
Wind Chill: 73°   Ceiling: Unl
Heat Index: 73°   Visibility: 10mi
Dew Point: 59°   Wind: 5mph
Humidity: 61%   Direction: 280°W
Pressure: 30.11"   Gusts: NA
Location:  33.3677°N, 89.0513°W
Report Text: KSTF 251735Z AUTO 28004KT 10SM CLR 23/15 A3011 RMK AO2
Loading
Personal Weather Stations






























Interactive Weather Map
Tropical Storm Tracking
New forecast layout! Learn more

10-Day Weather Forecast

Advertisements
Track Severe Weather on mobile